Terminal Aerodrome Forecast
Issued by NWS Kansas City/Pleasant Hill, MO

Home | Current Version | Previous Version | Text Only | Print | Product List | Glossary On
Versions: 1 2 3 4 5 6 7 8 9 10 11 12 13 14 15 16 17 18 19 20 21 22 23 24 25 26 27 28 29 30 31 32 33
590
FTUS43 KEAX 291737
TAFMCI
TAF
KMCI 291737Z 2918/3018 09015G25KT P6SM OVC008
     FM292200 09014KT P6SM VCTS OVC008CB
      TEMPO 2922/3001 2SM TSRA OVC003CB
     FM300200 04006KT 6SM -SHRA BKN007
     FM300900 04006KT 4SM -SHRA OVC004
     FM301600 01009KT 3SM BR VCSH OVC008=

USA.gov is the U.S. government's official web portal to all federal, state and local government web resources and services.